KJLN

Joplin Regional Airport

Joplin, Missouri, USA
KJLN 170520Z 1706/1806 17006KT P6SM SKC WS020/23035KT FM171500 21005KT P6SM SCT250 FM171800 34006KT P6SM BKN050 OVC100 FM180000 02014G19KT P6SM OVC015
Issued Valid From Valid To
Nov-17 @ 05:20 UTC
(4 hours ago)
Nov-17 @ 06:00 UTC
(3 hours ago)
Nov-18 @ 06:00 UTC
(in 21 hours)
Nov-17 @ 06:00 to Nov-17 @ 15:00
KJLN 170520Z 1706/1806 17006KT P6SM SKC WS020/23035KT
Wind Visibility Clouds
170° at 6 knots
 Wind shear 2,000' AGL from 230° at 35 knots
Greater than 6 miles
  • Clear skies
From Nov-17 @ 15:00 to Nov-17 @ 18:00
FM171500 21005KT P6SM SCT250
Wind Visibility Clouds
210° at 5 knots Greater than 6 miles
  • Scattered at 25,000' AGL
From Nov-17 @ 18:00 to Nov-18 @ 00:00
FM171800 34006KT P6SM BKN050 OVC100
Wind Visibility Clouds
340° at 6 knots Greater than 6 miles
  • Broken at 5,000' AGL
  • Overcast at 10,000' AGL
From Nov-18 @ 00:00 to Nov-18 @ 06:00
FM180000 02014G19KT P6SM OVC015
Wind Visibility Clouds
20° at 14 knots
 Gusting to 19 knots
Greater than 6 miles
  • Overcast at 1,500' AGL
KJLN 170520Z 1706/1806 17006KT P6SM SKC WS020/23035KT FM171500 21005KT P6SM SCT250 FM171800 34006KT P6SM BKN050 OVC100 FM180000 02014G19KT P6SM OVC015
Issued Nov-17 @ 05:20 UTC
(4 hours ago)
Valid From Nov-17 @ 06:00 UTC
(3 hours ago)
Valid To Nov-18 @ 06:00 UTC
(in 21 hours)
Nov-17 @ 06:00 - Nov-17 @ 15:00
Wind Visibility
170° at 6 knots Greater than 6 miles
Clouds
  • Clear skies
From Nov-17 @ 15:00 - Nov-17 @ 18:00
Wind Visibility
210° at 5 knots Greater than 6 miles
Clouds
  • Scattered at 25,000' AGL
From Nov-17 @ 18:00 - Nov-18 @ 00:00
Wind Visibility
340° at 6 knots Greater than 6 miles
Clouds
  • Broken at 5,000' AGL
  • Overcast at 10,000' AGL
From Nov-18 @ 00:00 - Nov-18 @ 06:00
Wind Visibility
20° at 14 knots
 Gusting to 19 knots
Greater than 6 miles
Clouds
  • Overcast at 1,500' AGL